Time;durP1;ratioP1;P1;durP2;ratioP2;P2;SDS_P1;SDS_P2;PMS_P1;PMS_P2;Temp;Humidity;BMP_temperature;BMP_pressure;BME280_temperature;BME280_humidity;BME280_pressure;Samples;Min_cycle;Max_cycle;Signal;HPM_P1;HPM_P2
2022/08/15 00:01:36;;;;;;;6.27;4.60;;;23.30;80.70;;;;;;4974136;28;20475;-72
2022/08/15 00:04:06;;;;;;;9.37;5.93;;;23.30;80.80;;;;;;4973933;28;20525;-73
2022/08/15 00:06:35;;;;;;;19.33;6.70;;;23.40;80.70;;;;;;4968809;28;20493;-74
2022/08/15 00:09:04;;;;;;;8.50;5.90;;;23.30;80.60;;;;;;4972378;28;20486;-70
2022/08/15 00:11:34;;;;;;;13.73;6.70;;;23.30;80.70;;;;;;4971147;28;20491;-72
2022/08/15 00:14:05;;;;;;;12.77;5.47;;;23.30;80.90;;;;;;4972103;28;20485;-70
2022/08/15 00:16:36;;;;;;;7.03;5.53;;;23.30;81.60;;;;;;4971635;28;20497;-71
2022/08/15 00:19:07;;;;;;;8.00;5.57;;;23.20;81.80;;;;;;4981436;28;20488;-71
2022/08/15 00:21:35;;;;;;;5.83;4.90;;;23.10;81.80;;;;;;4978079;28;21412;-70
2022/08/15 00:24:02;;;;;;;8.73;6.03;;;23.10;82.50;;;;;;4984306;28;21173;-71
2022/08/15 00:26:29;;;;;;;17.77;6.30;;;23.00;83.10;;;;;;4962344;28;20982;-70
2022/08/15 00:28:56;;;;;;;6.43;5.40;;;22.90;83.10;;;;;;4968019;28;20486;-70
2022/08/15 00:31:24;;;;;;;7.40;6.70;;;22.90;83.40;;;;;;4985843;28;21107;-71
2022/08/15 00:33:51;;;;;;;13.40;5.73;;;22.80;83.50;;;;;;4976987;28;20872;-71
2022/08/15 00:36:18;;;;;;;8.57;6.10;;;22.80;83.80;;;;;;4991630;28;20482;-71
2022/08/15 00:38:46;;;;;;;7.40;5.07;;;22.80;84.00;;;;;;4978287;28;21176;-71
2022/08/15 00:44:00;;;;;;;8.77;6.67;;;22.60;84.80;;;;;;4976704;28;20594;-75
2022/08/15 00:46:30;;;;;;;31.50;12.87;;;22.50;85.40;;;;;;4971628;28;20488;-70
2022/08/15 00:48:58;;;;;;;11.83;7.70;;;22.50;85.60;;;;;;4972908;28;20486;-70
2022/08/15 00:51:30;;;;;;;27.53;13.20;;;22.40;85.90;;;;;;4970172;28;20491;-70
2022/08/15 00:54:04;;;;;;;10.20;6.00;;;22.20;87.20;;;;;;4962566;28;20518;-70
2022/08/15 00:56:34;;;;;;;13.67;10.93;;;22.20;88.00;;;;;;4965775;28;20491;-73
2022/08/15 00:59:02;;;;;;;33.10;9.50;;;22.10;89.00;;;;;;4977372;28;20483;-70
2022/08/15 01:01:31;;;;;;;20.87;12.23;;;22.00;89.70;;;;;;4981255;28;20985;-72
2022/08/15 01:03:58;;;;;;;16.23;8.70;;;22.00;90.00;;;;;;4978117;28;20488;-71
2022/08/15 01:06:26;;;;;;;19.00;9.10;;;21.90;90.40;;;;;;4977114;28;20497;-70
2022/08/15 01:08:53;;;;;;;10.93;7.77;;;21.80;90.50;;;;;;4986554;28;20473;-71
2022/08/15 01:11:26;;;;;;;13.77;10.40;;;21.90;90.70;;;;;;4960941;28;20857;-72
2022/08/15 01:13:59;;;;;;;20.73;8.90;;;21.80;90.80;;;;;;4994195;28;20490;-72
2022/08/15 01:16:28;;;;;;;18.80;12.50;;;21.70;91.10;;;;;;4982141;28;21142;-72
2022/08/15 01:18:56;;;;;;;19.97;7.87;;;21.50;91.40;;;;;;4979948;28;20474;-72
2022/08/15 01:21:28;;;;;;;14.20;10.60;;;21.30;91.80;;;;;;4991485;28;20491;-71
2022/08/15 01:24:03;;;;;;;8.13;6.53;;;21.30;92.10;;;;;;4982627;28;20483;-71
2022/08/15 01:26:32;;;;;;;12.20;9.23;;;21.10;92.80;;;;;;4985294;28;20499;-72
2022/08/15 01:29:01;;;;;;;11.77;6.60;;;21.00;93.10;;;;;;4998593;28;20484;-72
2022/08/15 01:31:29;;;;;;;18.23;9.17;;;20.90;93.80;;;;;;4981723;28;20471;-73
2022/08/15 01:33:59;;;;;;;11.03;7.17;;;20.80;94.00;;;;;;4993035;28;20477;-70
2022/08/15 01:36:28;;;;;;;15.53;9.93;;;20.70;94.40;;;;;;4987434;28;20491;-71
2022/08/15 01:39:01;;;;;;;17.73;6.90;;;20.60;95.00;;;;;;4982735;28;20487;-72
2022/08/15 01:41:36;;;;;;;14.50;11.17;;;20.50;95.30;;;;;;4965095;28;20479;-70
2022/08/15 01:44:10;;;;;;;11.30;7.27;;;20.50;95.70;;;;;;4981302;28;20480;-75
2022/08/15 01:46:43;;;;;;;11.23;9.20;;;20.40;96.10;;;;;;4989463;28;20496;-73
2022/08/15 01:49:16;;;;;;;9.40;5.87;;;20.30;96.40;;;;;;4983994;28;20500;-71
2022/08/15 01:51:45;;;;;;;12.43;6.73;;;20.30;96.40;;;;;;4990042;28;20483;-71
2022/08/15 01:54:14;;;;;;;11.10;7.87;;;20.10;97.00;;;;;;4984832;28;20488;-73
2022/08/15 01:56:46;;;;;;;23.43;10.13;;;19.90;97.70;;;;;;4985050;28;20525;-74
2022/08/15 01:59:15;;;;;;;10.67;7.50;;;19.80;98.00;;;;;;4987722;28;21091;-75
2022/08/15 02:01:46;;;;;;;11.03;7.67;;;19.80;98.20;;;;;;4996363;28;20492;-70
2022/08/15 02:04:15;;;;;;;16.83;7.30;;;19.70;98.70;;;;;;4990338;28;20646;-70
2022/08/15 02:06:43;;;;;;;14.20;10.53;;;19.70;98.70;;;;;;4978538;28;20497;-72
2022/08/15 02:09:14;;;;;;;10.60;7.70;;;19.70;99.00;;;;;;4969322;28;20469;-71
2022/08/15 02:11:45;;;;;;;9.83;6.70;;;19.70;99.20;;;;;;4993718;28;20522;-71
2022/08/15 02:14:13;;;;;;;13.20;8.03;;;19.60;99.20;;;;;;4983668;28;20582;-72
2022/08/15 02:16:42;;;;;;;46.07;10.50;;;19.60;99.30;;;;;;4982801;28;20489;-71
2022/08/15 02:19:11;;;;;;;14.17;8.93;;;19.60;99.40;;;;;;4995801;28;20687;-69
2022/08/15 02:21:39;;;;;;;15.33;7.70;;;19.60;99.40;;;;;;4963058;28;20518;-73
2022/08/15 02:24:13;;;;;;;17.77;7.07;;;19.60;99.70;;;;;;4959425;28;20483;-69
2022/08/15 02:26:40;;;;;;;16.10;10.77;;;19.60;99.90;;;;;;4958041;28;20497;-70
2022/08/15 02:29:08;;;;;;;13.30;8.10;;;19.50;99.90;;;;;;4980424;28;20486;-71
2022/08/15 02:31:35;;;;;;;15.60;9.10;;;19.40;99.90;;;;;;4965595;28;20497;-73
2022/08/15 02:34:03;;;;;;;13.87;7.97;;;19.40;99.90;;;;;;4962676;28;20498;-70
2022/08/15 02:36:34;;;;;;;25.00;13.13;;;19.50;99.90;;;;;;4964887;28;20910;-70
2022/08/15 02:39:03;;;;;;;18.70;9.37;;;19.60;99.90;;;;;;4973236;28;20486;-72
2022/08/15 02:41:33;;;;;;;20.40;11.30;;;19.50;99.90;;;;;;4971264;28;21013;-69
2022/08/15 02:44:01;;;;;;;14.03;7.93;;;19.50;99.90;;;;;;4971062;28;20483;-72
2022/08/15 02:46:30;;;;;;;35.73;14.97;;;19.40;99.90;;;;;;4975747;28;20561;-70
2022/08/15 02:48:58;;;;;;;19.47;9.23;;;19.50;99.90;;;;;;4977977;28;20533;-70
2022/08/15 02:51:27;;;;;;;37.97;9.17;;;19.50;99.90;;;;;;4966579;28;20548;-71
2022/08/15 02:53:54;;;;;;;14.63;8.53;;;19.50;99.90;;;;;;4961880;28;20494;-73
2022/08/15 02:56:24;;;;;;;21.03;10.37;;;19.60;99.90;;;;;;4972669;28;20705;-71
2022/08/15 02:58:52;;;;;;;20.33;7.67;;;19.50;99.90;;;;;;4953354;28;20567;-74
2022/08/15 03:01:19;;;;;;;19.67;11.40;;;19.50;99.90;;;;;;4970181;28;20493;-72
2022/08/15 03:03:49;;;;;;;17.90;9.03;;;;;;;;;;4958555;28;20903;-74
2022/08/15 03:06:18;;;;;;;19.90;11.00;;;19.40;99.90;;;;;;4980202;28;20539;-70
2022/08/15 03:08:45;;;;;;;15.70;7.13;;;19.40;99.90;;;;;;4950870;28;20476;-71
2022/08/15 03:11:14;;;;;;;14.40;8.30;;;19.40;99.90;;;;;;4961303;28;20507;-72
2022/08/15 03:13:41;;;;;;;12.40;8.90;;;19.40;99.90;;;;;;4969572;28;20473;-73
2022/08/15 03:16:09;;;;;;;15.37;8.60;;;19.40;99.90;;;;;;4966570;28;20538;-71
2022/08/15 03:18:41;;;;;;;9.67;6.83;;;19.40;99.90;;;;;;4948603;28;20751;-72
2022/08/15 03:21:12;;;;;;;19.30;9.90;;;19.50;99.90;;;;;;4924179;28;20506;-71
2022/08/15 03:23:46;;;;;;;15.47;9.07;;;19.50;99.90;;;;;;4968313;28;20552;-71
2022/08/15 03:26:13;;;;;;;17.80;9.63;;;19.40;99.90;;;;;;4997543;28;20473;-71
2022/08/15 03:28:40;;;;;;;17.20;9.67;;;19.50;99.90;;;;;;4977606;28;20520;-70
2022/08/15 03:31:07;;;;;;;22.77;10.20;;;19.50;99.90;;;;;;4974978;28;20577;-73
2022/08/15 03:33:36;;;;;;;11.77;9.00;;;19.40;99.90;;;;;;4983739;28;20484;-72
2022/08/15 03:36:04;;;;;;;19.70;11.63;;;19.40;99.90;;;;;;4980692;28;20974;-72
2022/08/15 03:38:33;;;;;;;24.60;12.43;;;19.40;99.90;;;;;;4979378;28;20481;-72
2022/08/15 03:41:00;;;;;;;21.60;11.43;;;19.40;99.90;;;;;;4975084;28;20490;-72
2022/08/15 03:43:29;;;;;;;30.90;16.30;;;19.40;99.90;;;;;;4990975;28;20567;-71
2022/08/15 03:45:58;;;;;;;14.03;11.40;;;19.30;99.90;;;;;;4983208;28;20486;-73
2022/08/15 03:48:29;;;;;;;21.10;15.27;;;19.30;99.90;;;;;;4970046;28;21210;-69
2022/08/15 03:50:58;;;;;;;14.33;10.60;;;19.30;99.90;;;;;;4975677;28;20471;-71
2022/08/15 03:53:27;;;;;;;23.10;13.23;;;19.30;99.90;;;;;;4984985;28;20463;-73
2022/08/15 03:55:56;;;;;;;12.47;10.27;;;19.30;99.90;;;;;;4995500;28;20484;-71
2022/08/15 03:58:22;;;;;;;20.33;13.83;;;19.30;99.90;;;;;;4973824;28;20521;-72
2022/08/15 04:00:50;;;;;;;16.37;9.67;;;19.30;99.90;;;;;;4974643;28;20494;-71
2022/08/15 04:03:21;;;;;;;15.23;10.23;;;19.40;99.90;;;;;;4975000;28;20907;-70
2022/08/15 04:05:52;;;;;;;15.90;11.30;;;19.40;99.90;;;;;;4991526;28;20811;-70
2022/08/15 04:08:21;;;;;;;16.03;11.80;;;19.40;99.90;;;;;;4986043;28;20488;-70
2022/08/15 04:10:50;;;;;;;19.20;9.90;;;19.50;99.90;;;;;;4988251;28;21029;-72
2022/08/15 04:13:24;;;;;;;27.30;11.50;;;19.50;99.90;;;;;;4988832;28;20489;-74
2022/08/15 04:15:51;;;;;;;20.07;11.73;;;19.50;99.90;;;;;;4994735;28;20473;-70
2022/08/15 04:18:20;;;;;;;19.30;13.30;;;19.50;99.90;;;;;;4976025;28;20495;-71
2022/08/15 04:20:47;;;;;;;22.47;10.70;;;20.60;99.90;;;;;;4988264;28;20494;-71
2022/08/15 04:23:14;;;;;;;18.67;12.57;;;19.50;99.90;;;;;;4991414;28;20707;-71
2022/08/15 04:25:42;;;;;;;18.23;10.70;;;;;;;;;;4996246;28;20475;-72
2022/08/15 04:28:14;;;;;;;11.47;9.23;;;19.60;99.90;;;;;;4978345;28;20486;-70
2022/08/15 04:30:44;;;;;;;12.90;9.63;;;19.70;99.90;;;;;;4983335;28;20477;-71
2022/08/15 04:33:14;;;;;;;11.03;8.20;;;19.70;99.90;;;;;;4980753;28;20485;-72
2022/08/15 04:35:44;;;;;;;9.80;7.43;;;19.80;99.90;;;;;;4988669;28;20844;-71
2022/08/15 04:38:10;;;;;;;9.60;7.10;;;19.90;99.90;;;;;;4985631;28;20562;-70
2022/08/15 04:40:37;;;;;;;19.93;8.20;;;20.00;99.90;;;;;;4972363;28;20523;-70
2022/08/15 04:43:05;;;;;;;11.70;8.67;;;19.90;99.90;;;;;;4992371;28;20639;-72
2022/08/15 04:45:35;;;;;;;14.33;8.90;;;19.80;99.90;;;;;;4961849;28;20763;-70
2022/08/15 04:48:04;;;;;;;21.33;9.40;;;19.70;99.90;;;;;;4960497;28;20487;-71
2022/08/15 04:50:31;;;;;;;11.17;9.03;;;19.70;99.90;;;;;;4960774;28;20480;-71
2022/08/15 04:53:00;;;;;;;9.10;7.93;;;19.70;99.90;;;;;;4977437;28;20478;-71
2022/08/15 04:55:28;;;;;;;10.57;8.60;;;19.80;99.90;;;;;;4965082;28;20499;-71
2022/08/15 04:57:55;;;;;;;9.97;8.70;;;19.70;99.90;;;;;;4953192;28;20491;-71
2022/08/15 05:00:25;;;;;;;13.80;9.50;;;19.80;99.90;;;;;;4961853;28;21308;-70
2022/08/15 05:03:01;;;;;;;11.10;8.90;;;19.80;99.90;;;;;;4972868;28;20498;-72
2022/08/15 05:05:30;;;;;;;12.80;9.80;;;19.80;99.90;;;;;;4954012;28;20518;-71
2022/08/15 05:07:57;;;;;;;18.70;8.37;;;19.80;99.90;;;;;;4959359;28;20490;-69
2022/08/15 05:10:24;;;;;;;20.03;13.10;;;19.80;99.90;;;;;;4975019;28;20479;-71
2022/08/15 05:12:51;;;;;;;10.13;7.93;;;19.80;99.90;;;;;;4959775;28;20621;-71
2022/08/15 05:15:20;;;;;;;19.60;9.13;;;19.90;99.90;;;;;;4957638;28;20488;-70
2022/08/15 05:17:48;;;;;;;13.53;9.47;;;19.80;99.90;;;;;;4957431;28;20525;-71
2022/08/15 05:20:16;;;;;;;9.73;7.60;;;19.80;99.90;;;;;;4966730;28;20490;-72
2022/08/15 05:22:56;;;;;;;20.37;8.27;;;19.90;99.90;;;;;;4955998;28;21032;-70
2022/08/15 05:25:23;;;;;;;17.43;11.53;;;20.00;99.90;;;;;;4963793;28;20493;-70
2022/08/15 05:27:51;;;;;;;26.40;8.07;;;20.10;99.90;;;;;;4965163;28;21239;-71
2022/08/15 05:30:20;;;;;;;15.40;9.30;;;20.20;99.90;;;;;;4974007;28;20485;-70
2022/08/15 05:32:47;;;;;;;11.90;7.40;;;20.30;99.90;;;;;;4970769;28;20521;-69
2022/08/15 05:35:14;;;;;;;16.20;7.30;;;20.20;99.90;;;;;;4958901;28;20489;-71
2022/08/15 05:37:41;;;;;;;10.30;9.27;;;20.10;99.90;;;;;;4952481;28;20502;-71
2022/08/15 05:40:11;;;;;;;9.30;8.40;;;20.00;99.90;;;;;;4973621;28;20525;-71
2022/08/15 05:42:47;;;;;;;17.40;8.90;;;19.90;99.90;;;;;;4983987;28;20477;-70
2022/08/15 05:45:22;;;;;;;15.60;11.80;;;19.90;99.90;;;;;;4952270;28;20582;-70
2022/08/15 05:48:00;;;;;;;23.50;11.13;;;19.80;99.90;;;;;;4958293;28;20497;-71
2022/08/15 05:50:31;;;;;;;26.43;15.10;;;19.80;99.90;;;;;;4985846;28;20508;-74
2022/08/15 05:53:09;;;;;;;42.97;12.00;;;19.80;99.90;;;;;;4993870;28;20488;-71
2022/08/15 05:55:45;;;;;;;17.37;12.30;;;19.80;99.90;;;;;;4986210;28;20485;-71
2022/08/15 05:58:29;;;;;;;20.70;13.83;;;19.90;99.90;;;;;;4951978;28;20473;-72
2022/08/15 06:01:03;;;;;;;13.63;11.30;;;19.90;99.90;;;;;;4966206;28;21004;-73
2022/08/15 06:03:34;;;;;;;20.83;15.43;;;19.90;99.90;;;;;;4969366;28;20479;-70
2022/08/15 06:06:07;;;;;;;16.70;12.93;;;20.00;99.90;;;;;;4969195;28;20470;-72
2022/08/15 06:08:38;;;;;;;20.63;14.10;;;20.20;99.90;;;;;;4968435;28;20505;-71
2022/08/15 06:11:11;;;;;;;16.60;14.13;;;20.20;99.90;;;;;;4972629;28;20475;-71
2022/08/15 06:13:42;;;;;;;25.00;15.30;;;20.20;99.90;;;;;;4965928;28;20938;-72
2022/08/15 06:16:16;;;;;;;22.30;12.90;;;20.40;99.90;;;;;;4995644;28;20867;-72
2022/08/15 06:18:45;;;;;;;14.90;13.03;;;20.50;99.90;;;;;;4979599;28;20913;-73
2022/08/15 06:21:19;;;;;;;14.40;11.50;;;20.50;99.90;;;;;;4986843;28;20908;-71
2022/08/15 06:23:55;;;;;;;15.77;12.60;;;20.50;99.90;;;;;;4998335;28;20518;-71
2022/08/15 06:26:36;;;;;;;20.17;13.97;;;20.60;99.90;;;;;;4989715;28;20525;-71
2022/08/15 06:29:47;;;;;;;15.63;11.60;;;20.60;99.90;;;;;;4986180;28;20476;-70
2022/08/15 06:32:21;;;;;;;15.37;10.13;;;20.50;99.90;;;;;;4930595;28;20515;-73
2022/08/15 06:34:57;;;;;;;19.10;13.30;;;20.50;99.90;;;;;;4983322;28;20485;-72
2022/08/15 06:37:33;;;;;;;18.93;15.13;;;20.60;99.90;;;;;;4983796;28;20496;-71
2022/08/15 06:40:07;;;;;;;14.37;12.07;;;;;;;;;;4979704;28;20478;-70
2022/08/15 06:42:38;;;;;;;13.27;10.10;;;20.80;99.90;;;;;;4963428;28;20476;-70
2022/08/15 06:45:10;;;;;;;11.20;10.10;;;20.80;99.90;;;;;;4959954;28;20486;-70
2022/08/15 06:47:38;;;;;;;22.83;10.83;;;20.90;99.90;;;;;;4964666;28;20485;-70
2022/08/15 06:50:12;;;;;;;12.97;11.23;;;20.90;99.90;;;;;;4964820;28;20479;-71
2022/08/15 06:52:42;;;;;;;18.57;11.70;;;20.90;99.90;;;;;;4985974;28;20474;-70
2022/08/15 06:55:09;;;;;;;13.47;9.90;;;20.90;99.90;;;;;;4982841;28;20476;-70
2022/08/15 06:57:47;;;;;;;12.83;10.50;;;20.90;99.90;;;;;;4982328;28;20831;-72
2022/08/15 07:00:19;;;;;;;18.23;9.50;;;21.10;99.90;;;;;;4983164;28;20482;-71
2022/08/15 07:02:55;;;;;;;14.33;9.10;;;21.20;99.90;;;;;;4977814;28;20483;-71
2022/08/15 07:05:24;;;;;;;16.87;11.23;;;;;;;;;;4978614;28;20516;-71
2022/08/15 07:08:00;;;;;;;10.20;8.83;;;21.40;99.90;;;;;;4980673;28;20492;-71
2022/08/15 07:10:28;;;;;;;12.53;10.20;;;;;;;;;;4990154;28;20478;-72
2022/08/15 07:13:03;;;;;;;17.20;9.50;;;21.60;99.70;;;;;;4982666;28;20486;-71
2022/08/15 07:15:40;;;;;;;14.50;10.23;;;21.50;99.80;;;;;;4981968;28;20547;-71
2022/08/15 07:18:11;;;;;;;23.47;9.13;;;21.40;99.90;;;;;;4980142;28;21649;-71
2022/08/15 07:20:38;;;;;;;10.87;9.73;;;21.50;99.60;;;;;;4979875;28;20488;-71
2022/08/15 07:23:20;;;;;;;9.77;8.77;;;21.60;99.30;;;;;;4981048;28;20836;-70
2022/08/15 07:25:49;;;;;;;12.70;10.43;;;21.60;99.60;;;;;;4971144;28;20482;-72
2022/08/15 07:28:21;;;;;;;12.37;10.53;;;21.50;99.50;;;;;;4986518;28;20537;-71
2022/08/15 07:30:55;;;;;;;18.03;9.83;;;21.50;99.30;;;;;;4981283;28;20844;-73
2022/08/15 07:33:32;;;;;;;17.53;11.73;;;21.40;99.50;;;;;;4984079;28;20483;-72
2022/08/15 07:36:03;;;;;;;18.67;10.30;;;21.50;99.50;;;;;;4983063;28;20936;-71
2022/08/15 07:38:32;;;;;;;14.70;10.83;;;21.50;99.80;;;;;;4976843;28;20497;-71
2022/08/15 07:41:16;;;;;;;12.40;10.40;;;21.80;99.30;;;;;;4968961;28;20479;-72
2022/08/15 07:43:46;;;;;;;12.53;9.43;;;21.80;99.20;;;;;;4975132;28;20885;-71
2022/08/15 07:46:15;;;;;;;12.50;10.20;;;;;;;;;;4974491;28;20489;-71
2022/08/15 07:48:44;;;;;;;14.70;9.50;;;21.90;98.60;;;;;;4973454;28;20477;-71
2022/08/15 07:51:22;;;;;;;13.07;8.97;;;21.90;98.50;;;;;;4977069;28;20486;-71
2022/08/15 07:53:53;;;;;;;16.60;8.93;;;22.20;98.30;;;;;;4965975;28;20490;-71
2022/08/15 07:56:22;;;;;;;15.10;12.70;;;22.30;98.50;;;;;;4974606;28;20541;-70
2022/08/15 07:58:52;;;;;;;9.87;8.97;;;;;;;;;;4974120;28;21114;-72
2022/08/15 08:01:24;;;;;;;12.37;10.73;;;23.00;98.50;;;;;;4975315;28;20500;-71
2022/08/15 08:03:55;;;;;;;8.63;7.67;;;23.10;98.10;;;;;;4975699;28;20497;-71
2022/08/15 08:06:31;;;;;;;36.07;11.47;;;23.40;96.50;;;;;;4971898;28;20625;-71
2022/08/15 08:09:07;;;;;;;12.93;8.33;;;23.30;96.10;;;;;;4970400;28;20490;-71
2022/08/15 08:11:44;;;;;;;18.00;9.33;;;23.20;96.20;;;;;;4971674;28;20954;-70
2022/08/15 08:14:21;;;;;;;8.70;7.47;;;23.30;96.10;;;;;;4971808;28;20481;-71
2022/08/15 08:16:54;;;;;;;12.30;11.00;;;23.20;96.10;;;;;;4969438;28;20885;-71
2022/08/15 08:19:33;;;;;;;16.33;11.53;;;22.90;95.90;;;;;;4964352;28;20475;-72
2022/08/15 08:22:06;;;;;;;15.40;10.20;;;22.70;96.30;;;;;;4971558;28;20545;-71
2022/08/15 08:24:42;;;;;;;14.43;11.00;;;22.70;96.90;;;;;;4971404;28;20744;-72
2022/08/15 08:27:20;;;;;;;13.13;11.27;;;22.40;97.30;;;;;;4978563;28;20477;-70
2022/08/15 08:29:54;;;;;;;13.23;11.10;;;22.30;97.30;;;;;;4984180;28;21595;-72
2022/08/15 08:32:38;;;;;;;19.37;13.90;;;22.30;97.80;;;;;;4974394;28;20474;-72
2022/08/15 08:35:16;;;;;;;12.63;11.20;;;22.20;98.20;;;;;;4982750;28;20489;-73
2022/08/15 08:37:49;;;;;;;15.53;11.83;;;22.10;98.40;;;;;;4984170;28;21121;-73
2022/08/15 08:43:22;;;;;;;20.20;11.97;;;22.00;98.30;;;;;;4967168;28;20933;-72
2022/08/15 08:45:54;;;;;;;11.60;9.67;;;;;;;;;;4982578;28;20497;-72
2022/08/15 08:48:37;;;;;;;12.00;10.73;;;22.30;98.30;;;;;;4973410;28;20504;-71
2022/08/15 08:51:14;;;;;;;11.87;10.10;;;22.40;98.50;;;;;;4996134;28;20938;-72
2022/08/15 08:53:51;;;;;;;21.33;11.40;;;22.70;97.70;;;;;;4986266;28;20516;-72
2022/08/15 08:56:23;;;;;;;17.27;13.07;;;22.70;97.00;;;;;;4973038;28;20478;-72
2022/08/15 08:58:54;;;;;;;19.43;11.23;;;22.80;97.30;;;;;;4976809;28;20470;-72
2022/08/15 09:01:26;;;;;;;16.00;13.20;;;22.90;97.50;;;;;;4979187;28;20482;-74
2022/08/15 09:03:58;;;;;;;12.53;11.33;;;23.00;97.20;;;;;;4974332;28;20493;-73
2022/08/15 09:06:29;;;;;;;19.67;15.23;;;23.00;96.90;;;;;;4979136;28;20498;-74
2022/08/15 09:09:04;;;;;;;11.93;8.60;;;22.90;96.40;;;;;;4974427;28;20485;-72
2022/08/15 09:11:36;;;;;;;20.23;10.37;;;22.80;96.10;;;;;;4985006;28;20513;-74
2022/08/15 09:14:12;;;;;;;10.80;8.20;;;22.80;96.80;;;;;;4996641;28;20519;-73
2022/08/15 09:16:41;;;;;;;10.20;9.00;;;23.10;96.10;;;;;;4982719;28;20494;-73
2022/08/15 09:19:15;;;;;;;9.40;8.33;;;23.50;96.10;;;;;;4988244;28;20511;-73
2022/08/15 09:21:44;;;;;;;8.17;7.33;;;23.70;95.90;;;;;;4987558;28;20966;-72
2022/08/15 09:24:12;;;;;;;13.17;7.03;;;23.80;93.60;;;;;;4980761;28;20528;-71
2022/08/15 09:26:49;;;;;;;11.10;8.90;;;24.00;93.20;;;;;;4992308;28;20490;-72
2022/08/15 09:29:23;;;;;;;5.77;5.27;;;23.90;93.30;;;;;;4974156;28;21206;-70
2022/08/15 09:32:02;;;;;;;6.93;6.20;;;23.90;93.20;;;;;;4970460;28;20644;-71
2022/08/15 09:34:45;;;;;;;9.17;8.37;;;23.90;93.00;;;;;;4993061;28;20492;-72
2022/08/15 09:37:29;;;;;;;6.93;6.30;;;24.10;93.20;;;;;;4975268;28;20485;-70
2022/08/15 09:40:35;;;;;;;14.03;7.07;;;24.30;92.60;;;;;;4965285;28;20839;-70
2022/08/15 09:43:24;;;;;;;20.63;7.03;;;24.50;92.20;;;;;;4975095;28;20481;-70
2022/08/15 09:46:26;;;;;;;19.00;7.93;;;24.50;91.80;;;;;;4983267;28;20880;-69
2022/08/15 09:49:06;;;;;;;7.40;6.50;;;24.70;91.70;;;;;;4978231;28;20974;-70
2022/08/15 09:51:57;;;;;;;7.80;7.00;;;24.70;91.40;;;;;;4961682;28;20988;-70
2022/08/15 09:54:26;;;;;;;10.80;9.53;;;24.60;91.30;;;;;;4978569;28;20501;-70
2022/08/15 09:57:24;;;;;;;12.27;10.00;;;24.40;91.10;;;;;;4981054;28;20506;-70
2022/08/15 09:59:57;;;;;;;10.87;6.60;;;24.50;91.60;;;;;;4990256;28;20986;-72
2022/08/15 10:02:27;;;;;;;9.57;8.33;;;24.60;91.40;;;;;;4985244;28;20502;-74
2022/08/15 10:05:25;;;;;;;7.90;7.10;;;24.70;91.10;;;;;;4994249;28;20473;-71
2022/08/15 10:07:54;;;;;;;8.50;7.60;;;24.70;90.90;;;;;;4953326;28;20478;-72
2022/08/15 10:10:41;;;;;;;20.73;9.57;;;24.80;91.00;;;;;;4976996;28;20872;-72
2022/08/15 10:13:44;;;;;;;7.27;6.50;;;25.10;90.80;;;;;;4977573;28;20474;-73
2022/08/15 10:16:47;;;;;;;10.03;6.67;;;25.30;90.30;;;;;;4979092;28;20482;-71
2022/08/15 10:19:31;;;;;;;5.70;5.20;;;25.40;90.40;;;;;;4984569;28;20953;-72
2022/08/15 10:22:01;;;;;;;16.37;6.80;;;25.40;89.50;;;;;;4984921;28;21005;-72
2022/08/15 10:24:33;;;;;;;9.53;8.20;;;25.50;89.60;;;;;;4979245;28;20486;-73
2022/08/15 10:27:22;;;;;;;8.70;7.80;;;25.50;88.70;;;;;;4977042;28;20501;-72
2022/08/15 10:29:51;;;;;;;7.33;6.63;;;25.50;88.30;;;;;;4978389;28;20576;-70
2022/08/15 10:32:35;;;;;;;6.40;5.77;;;25.40;89.30;;;;;;4996606;28;21616;-70
2022/08/15 10:35:05;;;;;;;7.73;6.97;;;25.50;89.50;;;;;;4976788;28;20980;-71
2022/08/15 10:37:43;;;;;;;8.60;7.73;;;25.50;89.40;;;;;;4981677;28;20485;-72
2022/08/15 10:40:43;;;;;;;8.80;6.80;;;25.40;89.00;;;;;;4988375;28;21033;-71
2022/08/15 10:43:27;;;;;;;7.10;6.20;;;25.50;88.80;;;;;;4987491;28;20562;-71
2022/08/15 10:46:00;;;;;;;8.23;7.00;;;25.40;89.20;;;;;;4984139;28;20490;-72
2022/08/15 10:48:44;;;;;;;10.20;7.70;;;25.50;90.00;;;;;;4980406;28;20710;-72
2022/08/15 10:51:22;;;;;;;7.40;6.70;;;25.80;87.90;;;;;;4977470;28;20524;-72
2022/08/15 10:54:01;;;;;;;8.97;7.60;;;26.00;87.20;;;;;;4981306;28;20478;-71
2022/08/15 10:56:33;;;;;;;15.13;10.47;;;26.20;85.70;;;;;;4984946;28;20481;-71
2022/08/15 10:59:02;;;;;;;8.30;6.70;;;26.40;84.60;;;;;;4976033;28;20560;-74
2022/08/15 11:01:32;;;;;;;13.50;9.93;;;26.60;82.40;;;;;;4979289;28;20474;-74
2022/08/15 11:04:05;;;;;;;13.70;6.70;;;26.80;81.30;;;;;;4981456;28;20998;-73
2022/08/15 11:06:38;;;;;;;22.90;12.70;;;26.60;79.60;;;;;;4989092;28;20501;-72
2022/08/15 11:09:09;;;;;;;29.77;7.33;;;27.00;82.10;;;;;;4971457;28;20486;-73
2022/08/15 11:11:42;;;;;;;16.67;8.13;;;27.10;80.70;;;;;;4995599;28;21048;-72
2022/08/15 11:14:17;;;;;;;15.97;8.47;;;27.10;80.00;;;;;;4984358;28;21105;-73
2022/08/15 11:16:51;;;;;;;37.93;13.27;;;27.20;81.10;;;;;;4992205;28;20642;-73
2022/08/15 11:19:21;;;;;;;8.67;7.27;;;27.10;81.30;;;;;;4975381;28;20483;-73
2022/08/15 11:21:50;;;;;;;17.90;7.63;;;26.80;81.60;;;;;;4979331;28;20979;-73
2022/08/15 11:24:28;;;;;;;15.63;10.00;;;26.90;81.50;;;;;;4987566;28;20547;-73
2022/08/15 11:27:10;;;;;;;59.97;14.70;;;26.60;79.50;;;;;;4977982;28;20509;-73
2022/08/15 11:29:39;;;;;;;27.80;10.63;;;26.60;83.30;;;;;;4976662;28;20481;-76
2022/08/15 11:32:07;;;;;;;36.67;15.10;;;25.90;90.60;;;;;;4990101;28;20586;-69
2022/08/15 11:34:37;;;;;;;36.47;12.23;;;25.20;90.40;;;;;;4996211;28;21134;-69
2022/08/15 11:37:09;;;;;;;15.07;10.67;;;24.70;91.00;;;;;;4974045;28;20524;-68
2022/08/15 11:39:43;;;;;;;17.80;9.43;;;24.30;91.40;;;;;;4969290;28;20506;-67
2022/08/15 11:42:15;;;;;;;14.57;8.90;;;24.30;92.00;;;;;;4979156;28;20484;-68
2022/08/15 11:44:46;;;;;;;9.70;7.40;;;24.30;93.00;;;;;;4976429;28;20483;-68
2022/08/15 11:47:16;;;;;;;9.67;8.00;;;24.40;93.10;;;;;;4986768;28;20487;-67
2022/08/15 11:49:48;;;;;;;8.87;7.10;;;24.40;92.70;;;;;;4991653;28;20496;-68
2022/08/15 11:52:23;;;;;;;15.70;7.30;;;24.20;90.90;;;;;;4977030;28;20471;-68
2022/08/15 11:55:12;;;;;;;8.13;7.10;;;24.10;92.10;;;;;;4975852;28;20892;-68
2022/08/15 11:57:45;;;;;;;8.97;8.00;;;24.00;92.60;;;;;;4963575;28;21129;-69
2022/08/15 12:00:21;;;;;;;14.83;8.73;;;24.00;92.70;;;;;;4968584;28;20483;-69
2022/08/15 12:02:49;;;;;;;9.73;6.40;;;24.30;93.30;;;;;;4958819;28;20862;-68
2022/08/15 12:05:26;;;;;;;8.90;7.63;;;24.70;95.70;;;;;;4958567;28;20643;-68
2022/08/15 12:07:58;;;;;;;33.60;8.77;;;25.00;94.10;;;;;;4969997;28;20482;-69
2022/08/15 12:10:31;;;;;;;12.67;8.13;;;25.20;93.10;;;;;;4976543;28;21002;-67
2022/08/15 12:12:59;;;;;;;12.20;8.80;;;25.70;92.70;;;;;;4978596;28;20489;-69
2022/08/15 12:15:40;;;;;;;12.90;8.20;;;25.80;91.00;;;;;;4977584;28;20493;-69
2022/08/15 12:18:13;;;;;;;15.13;9.37;;;26.00;91.50;;;;;;4973657;28;20481;-69
2022/08/15 12:20:46;;;;;;;9.83;8.93;;;26.00;91.80;;;;;;4986122;28;20521;-68
2022/08/15 12:23:22;;;;;;;9.33;7.57;;;26.20;91.50;;;;;;4954115;28;20840;-69
2022/08/15 12:25:53;;;;;;;20.53;10.13;;;26.50;93.00;;;;;;4958797;28;20486;-69
2022/08/15 12:28:20;;;;;;;9.83;8.87;;;26.50;90.80;;;;;;4953414;28;20483;-70
2022/08/15 12:30:47;;;;;;;14.07;9.57;;;26.40;92.50;;;;;;4967925;28;20574;-69
2022/08/15 12:33:15;;;;;;;12.50;8.40;;;26.50;90.60;;;;;;4978179;28;20474;-69
2022/08/15 12:35:41;;;;;;;10.30;9.20;;;26.50;92.40;;;;;;4970664;28;20919;-69
2022/08/15 12:38:08;;;;;;;13.37;10.90;;;26.40;91.60;;;;;;4970682;28;20534;-68
2022/08/15 12:40:36;;;;;;;9.47;8.60;;;26.40;91.40;;;;;;4973899;28;20514;-68
2022/08/15 12:43:04;;;;;;;9.67;8.67;;;26.30;91.20;;;;;;4960340;28;20948;-69
2022/08/15 12:45:31;;;;;;;13.27;8.90;;;;;;;;;;4970285;28;20494;-69
2022/08/15 12:47:58;;;;;;;12.20;8.30;;;26.30;90.90;;;;;;4963886;28;20509;-69
2022/08/15 12:50:25;;;;;;;15.40;8.80;;;26.50;91.50;;;;;;4975846;28;20478;-69
2022/08/15 12:52:54;;;;;;;7.67;6.97;;;;;;;;;;4973729;28;20478;-69
2022/08/15 12:55:22;;;;;;;8.63;7.80;;;26.70;85.60;;;;;;4964307;28;20483;-68
2022/08/15 12:57:50;;;;;;;11.37;8.67;;;26.90;84.40;;;;;;4963524;28;20489;-69
2022/08/15 13:00:19;;;;;;;12.73;7.60;;;27.10;86.00;;;;;;4969476;28;20482;-69
2022/08/15 13:02:45;;;;;;;9.33;8.00;;;27.30;87.00;;;;;;4994721;28;20513;-68
2022/08/15 13:05:30;;;;;;;10.67;6.80;;;27.50;84.60;;;;;;4980151;28;21006;-69
2022/08/15 13:07:57;;;;;;;11.30;6.87;;;27.70;82.70;;;;;;4968962;28;20544;-69
2022/08/15 13:10:24;;;;;;;9.70;7.00;;;;;;;;;;4983979;28;20490;-69